Time;durP1;ratioP1;P1;durP2;ratioP2;P2;SDS_P1;SDS_P2;PMS_P1;PMS_P2;Temp;Humidity;BMP_temperature;BMP_pressure;BME280_temperature;BME280_humidity;BME280_pressure;Samples;Min_cycle;Max_cycle;Signal;HPM_P1;HPM_P2
2023/04/21 00:01:59;;;;;;;16.10;4.30;;;;;;;7.85;100.00;100506.99;110012;1241;72736;-72
2023/04/21 00:04:28;;;;;;;16.60;4.10;;;;;;;7.83;100.00;100506.76;109915;1242;61410;-71
2023/04/21 00:07:03;;;;;;;10.60;3.20;;;;;;;7.85;100.00;100505.79;109834;1241;69994;-72
2023/04/21 00:09:31;;;;;;;18.70;4.70;;;;;;;7.86;100.00;100511.98;109853;1241;74988;-72
2023/04/21 00:12:00;;;;;;;13.00;4.10;;;;;;;7.83;100.00;100506.60;109980;1241;57633;-71
2023/04/21 00:14:29;;;;;;;13.50;4.10;;;;;;;7.82;100.00;100508.23;109985;1241;60579;-71
2023/04/21 00:16:59;;;;;;;12.60;4.40;;;;;;;7.78;100.00;100503.79;109966;1240;74028;-71
2023/04/21 00:19:28;;;;;;;14.00;3.60;;;;;;;7.73;100.00;100505.15;109922;1240;71845;-71
2023/04/21 00:21:58;;;;;;;10.50;4.40;;;;;;;7.70;100.00;100500.53;109940;1241;70175;-71
2023/04/21 00:24:27;;;;;;;12.20;4.40;;;;;;;7.72;100.00;100500.41;109617;1243;64133;-73
2023/04/21 00:26:56;;;;;;;16.80;5.40;;;;;;;7.74;100.00;100498.56;109793;1242;61112;-73
2023/04/21 00:29:24;;;;;;;11.90;4.20;;;;;;;7.73;100.00;100505.19;109765;1240;60270;-73
2023/04/21 00:31:53;;;;;;;12.10;4.20;;;;;;;7.73;100.00;100500.48;109787;1241;62701;-70
2023/04/21 00:34:22;;;;;;;12.50;4.00;;;;;;;7.74;100.00;100495.73;109809;1242;61582;-70
2023/04/21 00:36:52;;;;;;;11.60;3.80;;;;;;;7.78;100.00;100490.11;109686;1241;60251;-72
2023/04/21 00:39:21;;;;;;;15.80;4.30;;;;;;;7.83;100.00;100492.08;109679;1242;63224;-72
2023/04/21 00:41:50;;;;;;;16.10;4.60;;;;;;;7.85;100.00;100489.81;109625;1242;63003;-73
2023/04/21 00:44:19;;;;;;;11.70;4.10;;;;;;;7.87;100.00;100488.81;109665;1240;60532;-73
2023/04/21 00:46:48;;;;;;;15.80;5.10;;;;;;;7.88;100.00;100485.86;109565;1240;73104;-73
2023/04/21 00:49:17;;;;;;;11.90;4.40;;;;;;;7.90;100.00;100484.66;109824;1239;71765;-73
2023/04/21 00:51:46;;;;;;;11.60;4.40;;;;;;;7.91;100.00;100489.59;109822;1242;69599;-73
2023/04/21 00:54:17;;;;;;;19.80;4.90;;;;;;;7.93;100.00;100478.39;109804;1241;74261;-72
2023/04/21 00:56:46;;;;;;;14.70;4.00;;;;;;;7.91;100.00;100478.48;109770;1242;64586;-72
2023/04/21 00:59:14;;;;;;;9.70;4.10;;;;;;;7.95;100.00;100473.73;109783;1242;61722;-72
2023/04/21 01:01:43;;;;;;;17.00;4.40;;;;;;;7.92;100.00;100472.88;109714;1244;64010;-73
2023/04/21 01:04:12;;;;;;;17.90;5.10;;;;;;;7.91;100.00;100463.73;109933;1242;60872;-73
2023/04/21 01:06:42;;;;;;;15.80;5.20;;;;;;;7.96;100.00;100456.83;109964;1242;60008;-72
2023/04/21 01:09:11;;;;;;;14.30;4.20;;;;;;;7.92;100.00;100457.79;109912;1241;73039;-71
2023/04/21 01:11:40;;;;;;;10.20;4.20;;;;;;;7.95;100.00;100452.05;109808;1242;63349;-73
2023/04/21 01:14:09;;;;;;;11.20;4.10;;;;;;;7.93;100.00;100455.00;109843;1241;61995;-73
2023/04/21 01:16:38;;;;;;;10.10;4.00;;;;;;;7.89;100.00;100451.41;109891;1241;73970;-72
2023/04/21 01:19:07;;;;;;;13.60;4.60;;;;;;;7.91;100.00;100444.70;109726;1242;62368;-72
2023/04/21 01:21:42;;;;;;;14.30;4.50;;;;;;;7.95;100.00;100441.32;109833;1241;69992;-73
2023/04/21 01:24:11;;;;;;;10.90;5.30;;;;;;;7.97;100.00;100438.77;109814;1241;73229;-73
2023/04/21 01:26:41;;;;;;;11.80;4.80;;;;;;;7.95;100.00;100433.36;109815;1243;57646;-73
2023/04/21 01:29:09;;;;;;;18.30;4.80;;;;;;;7.93;100.00;100431.55;109666;1245;60201;-73
2023/04/21 01:31:38;;;;;;;18.50;5.00;;;;;;;7.96;100.00;100433.80;109844;1242;63461;-73
2023/04/21 01:34:08;;;;;;;12.50;4.10;;;;;;;7.95;100.00;100434.01;109666;1245;60825;-72
2023/04/21 01:36:37;;;;;;;14.20;4.90;;;;;;;7.94;100.00;100431.70;109697;1242;59183;-74
2023/04/21 01:39:06;;;;;;;15.50;4.80;;;;;;;7.93;100.00;100427.71;109633;1242;63122;-72
2023/04/21 01:41:35;;;;;;;13.50;4.40;;;;;;;7.91;100.00;100423.57;109818;1241;62019;-74
2023/04/21 01:44:04;;;;;;;15.30;4.60;;;;;;;7.90;100.00;100418.76;109834;1240;60425;-73
2023/04/21 01:46:33;;;;;;;11.30;4.00;;;;;;;7.86;100.00;100412.44;109927;1240;73316;-73
2023/04/21 01:49:03;;;;;;;14.70;5.30;;;;;;;7.87;100.00;100407.31;109786;1240;61773;-73
2023/04/21 01:51:33;;;;;;;19.10;5.00;;;;;;;7.85;100.00;100405.77;109844;1241;58995;-73
2023/04/21 01:54:02;;;;;;;15.10;4.60;;;;;;;7.80;100.00;100402.95;109795;1240;63251;-73
2023/04/21 01:56:31;;;;;;;10.50;4.00;;;;;;;7.80;100.00;100399.84;109825;1239;62109;-73
2023/04/21 01:59:00;;;;;;;16.40;5.00;;;;;;;7.82;100.00;100393.30;109809;1241;59995;-73
2023/04/21 02:01:28;;;;;;;16.20;4.70;;;;;;;7.86;100.00;100392.50;109815;1242;74648;-74
2023/04/21 02:03:58;;;;;;;20.60;6.10;;;;;;;7.85;100.00;100392.03;109924;1241;72503;-72
2023/04/21 02:06:28;;;;;;;15.70;4.70;;;;;;;7.82;100.00;100392.64;109821;1240;60372;-72
2023/04/21 02:08:57;;;;;;;11.10;4.00;;;;;;;7.88;100.00;100389.09;109937;1241;63266;-73
2023/04/21 02:11:28;;;;;;;14.90;4.70;;;;;;;7.88;100.00;100389.80;109784;1242;57094;-73
2023/04/21 02:13:57;;;;;;;19.30;5.20;;;;;;;7.88;100.00;100386.85;109724;1241;60335;-73
2023/04/21 02:16:26;;;;;;;14.60;5.10;;;;;;;7.86;100.00;100385.91;109721;1241;72079;-72
2023/04/21 02:18:56;;;;;;;10.90;4.30;;;;;;;7.83;100.00;100391.64;109667;1240;61374;-72
2023/04/21 02:21:26;;;;;;;13.40;4.60;;;;;;;7.83;100.00;100387.19;109687;1241;59954;-72
2023/04/21 02:23:55;;;;;;;14.60;4.90;;;;;;;7.86;100.00;100380.75;109694;1242;62517;-72
2023/04/21 02:26:26;;;;;;;15.70;5.30;;;;;;;7.83;100.00;100377.61;109674;1242;62097;-72
2023/04/21 02:28:55;;;;;;;17.80;4.50;;;;;;;7.86;100.00;100375.68;109611;1241;57686;-73
2023/04/21 02:31:24;;;;;;;17.00;4.90;;;;;;;7.86;100.00;100379.30;109589;1241;72741;-73
2023/04/21 02:33:53;;;;;;;17.30;4.60;;;;;;;7.87;100.00;100382.23;109502;1241;72616;-73
2023/04/21 02:36:22;;;;;;;13.20;4.90;;;;;;;7.87;100.00;100384.66;109755;1241;69233;-73
2023/04/21 02:38:50;;;;;;;13.20;4.90;;;;;;;7.84;100.00;100388.63;109650;1243;73861;-73
2023/04/21 02:41:19;;;;;;;14.50;5.00;;;;;;;7.89;100.00;100385.20;109755;1240;57215;-73
2023/04/21 02:43:48;;;;;;;13.40;5.10;;;;;;;7.83;100.00;100385.73;109775;1241;57737;-73
2023/04/21 02:46:17;;;;;;;17.40;4.90;;;;;;;7.84;100.00;100387.80;109901;1240;63015;-72
2023/04/21 02:48:46;;;;;;;14.40;4.90;;;;;;;7.80;100.00;100388.05;109780;1240;71360;-73
2023/04/21 02:51:14;;;;;;;15.30;4.50;;;;;;;7.89;100.00;100400.64;109809;1240;70225;-71
2023/04/21 02:53:43;;;;;;;13.10;5.10;;;;;;;7.90;100.00;100388.80;109785;1240;64973;-71
2023/04/21 02:56:12;;;;;;;16.00;4.80;;;;;;;7.87;100.00;100390.21;109879;1242;57616;-72
2023/04/21 02:58:41;;;;;;;14.90;4.70;;;;;;;7.86;100.00;100396.84;109781;1240;57688;-72
2023/04/21 03:01:10;;;;;;;14.00;4.40;;;;;;;7.90;100.00;100392.91;109784;1244;64797;-72
2023/04/21 03:03:38;;;;;;;11.60;4.30;;;;;;;7.90;100.00;100388.95;109884;1240;71776;-72
2023/04/21 03:06:07;;;;;;;15.70;4.50;;;;;;;7.91;100.00;100384.38;109782;1241;59841;-72
2023/04/21 03:08:36;;;;;;;16.90;5.00;;;;;;;7.88;100.00;100388.55;109684;1241;72541;-72
2023/04/21 03:11:06;;;;;;;20.30;5.00;;;;;;;7.87;100.00;100395.55;109830;1240;57104;-72
2023/04/21 03:13:35;;;;;;;12.30;5.10;;;;;;;7.92;100.00;100396.47;109868;1240;57137;-72
2023/04/21 03:16:04;;;;;;;20.70;5.20;;;;;;;7.88;100.00;100400.67;109586;1240;73507;-73
2023/04/21 03:18:36;;;;;;;13.20;4.60;;;;;;;7.88;100.00;100398.60;109703;1241;61391;-72
2023/04/21 03:21:05;;;;;;;12.20;4.80;;;;;;;7.88;100.00;100397.42;109715;1241;59980;-73
2023/04/21 03:23:34;;;;;;;13.60;4.70;;;;;;;7.84;100.00;100403.73;109805;1241;73845;-73
2023/04/21 03:26:07;;;;;;;12.60;4.00;;;;;;;7.88;100.00;100404.53;109781;1242;61749;-73
2023/04/21 03:28:36;;;;;;;16.70;5.90;;;;;;;7.87;100.00;100400.26;109833;1241;57613;-73
2023/04/21 03:31:05;;;;;;;12.10;5.40;;;;;;;7.86;100.00;100394.55;109707;1240;72631;-72
2023/04/21 03:33:33;;;;;;;24.80;9.00;;;;;;;7.86;100.00;100399.77;109688;1241;71708;-72
2023/04/21 03:36:02;;;;;;;16.90;5.40;;;;;;;7.82;100.00;100398.65;109655;1241;59849;-72
2023/04/21 03:38:31;;;;;;;13.60;5.40;;;;;;;7.81;100.00;100398.36;109584;1240;63148;-73
2023/04/21 03:41:00;;;;;;;22.90;8.10;;;;;;;7.86;100.00;100403.42;109561;1241;62919;-73
2023/04/21 03:43:28;;;;;;;17.20;7.00;;;;;;;7.71;100.00;100405.65;109635;1241;61360;-72
2023/04/21 03:45:57;;;;;;;14.20;6.50;;;;;;;7.76;100.00;100401.30;109847;1241;63569;-73
2023/04/21 03:48:27;;;;;;;23.90;7.10;;;;;;;7.85;100.00;100406.27;109927;1241;72079;-72
2023/04/21 03:50:56;;;;;;;15.60;6.40;;;;;;;7.94;100.00;100409.85;109951;1239;59560;-73
2023/04/21 03:53:25;;;;;;;17.00;5.60;;;;;;;7.96;100.00;100400.88;109919;1239;63553;-73
2023/04/21 03:55:54;;;;;;;11.70;4.80;;;;;;;8.02;100.00;100414.55;109962;1239;57728;-72
2023/04/21 03:58:23;;;;;;;17.30;5.70;;;;;;;8.04;100.00;100417.16;109984;1240;61206;-73
2023/04/21 04:00:51;;;;;;;17.90;5.80;;;;;;;8.12;100.00;100407.95;110002;1240;74424;-72
2023/04/21 04:03:20;;;;;;;16.90;6.40;;;;;;;8.15;100.00;100415.23;109981;1240;62092;-76
2023/04/21 04:05:51;;;;;;;14.70;5.60;;;;;;;8.09;100.00;100418.21;109968;1240;69316;-73
2023/04/21 04:08:20;;;;;;;16.50;5.80;;;;;;;8.01;100.00;100420.10;109832;1240;74207;-73
2023/04/21 04:10:49;;;;;;;17.70;6.60;;;;;;;8.10;100.00;100423.66;109854;1242;61966;-74
2023/04/21 04:13:18;;;;;;;14.80;5.60;;;;;;;8.12;100.00;100425.08;109996;1240;60898;-75
2023/04/21 04:15:47;;;;;;;13.60;5.50;;;;;;;8.13;100.00;100427.30;110063;1239;73147;-81
2023/04/21 04:18:16;;;;;;;14.00;5.20;;;;;;;8.23;100.00;100437.74;109977;1239;72011;-76
2023/04/21 04:20:44;;;;;;;19.30;6.20;;;;;;;8.31;100.00;100440.66;109811;1240;70876;-77
2023/04/21 04:23:13;;;;;;;17.70;5.60;;;;;;;8.41;100.00;100442.30;109810;1241;64654;-74
2023/04/21 04:25:42;;;;;;;18.20;4.80;;;;;;;8.45;100.00;100444.83;109789;1241;57977;-73
2023/04/21 04:28:11;;;;;;;18.60;5.70;;;;;;;8.49;100.00;100446.27;109632;1241;61160;-73
2023/04/21 04:30:41;;;;;;;13.80;4.90;;;;;;;8.54;100.00;100447.83;109594;1239;74175;-74
2023/04/21 04:33:11;;;;;;;11.40;5.40;;;;;;;8.57;100.00;100455.12;109655;1239;71135;-74
2023/04/21 04:35:40;;;;;;;11.40;4.10;;;;;;;8.64;100.00;100457.91;109710;1241;70983;-74
2023/04/21 04:38:09;;;;;;;17.00;4.90;;;;;;;8.73;100.00;100461.11;109777;1239;73383;-75
2023/04/21 04:40:37;;;;;;;13.70;4.60;;;;;;;8.70;100.00;100469.48;109803;1241;63340;-74
2023/04/21 04:43:07;;;;;;;13.10;4.10;;;;;;;8.75;100.00;100473.97;109921;1241;57675;-74
2023/04/21 04:45:37;;;;;;;13.80;4.10;;;;;;;8.76;100.00;100474.47;109897;1241;63571;-73
2023/04/21 04:48:06;;;;;;;9.00;3.80;;;;;;;8.82;100.00;100481.17;109842;1241;61595;-74
2023/04/21 04:50:35;;;;;;;10.80;4.30;;;;;;;8.85;100.00;100488.54;109730;1240;69759;-74
2023/04/21 04:53:03;;;;;;;14.70;4.90;;;;;;;8.85;100.00;100482.84;109858;1239;74175;-74
2023/04/21 04:55:32;;;;;;;13.80;3.90;;;;;;;8.89;100.00;100486.45;109720;1241;57776;-75
2023/04/21 04:58:01;;;;;;;16.30;4.20;;;;;;;8.84;100.00;100491.79;109906;1241;57672;-74
2023/04/21 05:00:30;;;;;;;16.30;4.30;;;;;;;8.86;100.00;100487.16;109941;1240;63004;-74
2023/04/21 05:02:59;;;;;;;14.50;5.20;;;;;;;8.93;100.00;100481.45;109950;1239;61487;-74
2023/04/21 05:05:28;;;;;;;15.70;5.40;;;;;;;8.90;100.00;100478.20;109925;1240;59861;-74
2023/04/21 05:07:57;;;;;;;17.90;5.00;;;;;;;8.93;100.00;100483.50;109913;1241;63249;-74
2023/04/21 05:10:26;;;;;;;16.90;4.50;;;;;;;9.02;100.00;100477.34;109899;1241;57772;-74
2023/04/21 05:12:55;;;;;;;11.10;3.90;;;;;;;9.01;100.00;100480.02;109931;1239;59601;-73
2023/04/21 05:15:24;;;;;;;11.40;4.30;;;;;;;9.13;100.00;100488.35;109925;1241;73258;-72
2023/04/21 05:17:52;;;;;;;10.80;4.00;;;;;;;9.21;100.00;100489.20;109966;1240;62693;-74
2023/04/21 05:20:21;;;;;;;13.50;4.20;;;;;;;9.31;100.00;100490.25;109867;1239;69816;-74
2023/04/21 05:22:50;;;;;;;10.90;3.70;;;;;;;9.34;100.00;100494.02;109792;1241;63267;-73
2023/04/21 05:25:19;;;;;;;12.10;3.80;;;;;;;9.37;100.00;100492.30;109785;1239;62349;-72
2023/04/21 05:27:48;;;;;;;16.50;4.80;;;;;;;9.43;100.00;100492.35;109813;1240;60921;-73
2023/04/21 05:30:16;;;;;;;13.90;5.00;;;;;;;9.43;100.00;100488.32;109944;1240;64315;-73
2023/04/21 05:32:45;;;;;;;15.50;4.30;;;;;;;9.54;100.00;100486.90;109939;1239;61463;-73
2023/04/21 05:35:14;;;;;;;11.80;4.50;;;;;;;9.59;100.00;100490.53;109952;1239;60018;-73
2023/04/21 05:37:43;;;;;;;12.10;3.90;;;;;;;9.63;100.00;100488.80;109971;1240;72337;-73
2023/04/21 05:40:12;;;;;;;13.90;4.20;;;;;;;9.55;100.00;100485.58;109911;1241;63444;-73
2023/04/21 05:42:40;;;;;;;12.20;3.90;;;;;;;9.54;100.00;100484.28;109966;1239;57974;-73
2023/04/21 05:45:10;;;;;;;16.50;4.40;;;;;;;9.62;100.00;100482.98;109826;1242;61936;-73
2023/04/21 05:47:44;;;;;;;13.30;4.10;;;;;;;9.62;100.00;100484.73;109929;1239;72368;-74
2023/04/21 05:50:13;;;;;;;15.60;4.40;;;;;;;9.57;100.00;100481.80;109736;1239;60118;-72
2023/04/21 05:52:42;;;;;;;12.60;4.50;;;;;;;9.48;99.97;100476.34;109572;1242;72061;-72
2023/04/21 05:55:10;;;;;;;12.30;4.30;;;;;;;9.64;100.00;100475.75;109648;1242;63331;-73
2023/04/21 05:57:39;;;;;;;16.70;4.20;;;;;;;9.54;99.95;100483.39;109678;1239;61543;-72
2023/04/21 06:00:09;;;;;;;14.80;3.70;;;;;;;9.65;100.00;100485.20;109542;1244;62748;-73
2023/04/21 06:02:38;;;;;;;11.90;4.40;;;;;;;9.71;100.00;100485.31;109661;1241;72257;-73
2023/04/21 06:05:07;;;;;;;13.40;4.00;;;;;;;9.60;99.80;100485.91;109777;1239;70821;-74
2023/04/21 06:07:36;;;;;;;15.20;3.80;;;;;;;9.53;99.79;100481.01;109767;1242;63568;-78
2023/04/21 06:10:06;;;;;;;12.40;3.70;;;;;;;9.63;100.00;100475.95;109794;1242;61658;-74
2023/04/21 06:12:34;;;;;;;13.40;4.10;;;;;;;9.64;99.88;100488.05;109809;1240;61557;-74
2023/04/21 06:15:04;;;;;;;13.70;4.10;;;;;;;9.79;100.00;100494.95;109544;1240;63921;-74
2023/04/21 06:17:33;;;;;;;14.30;4.60;;;;;;;9.82;100.00;100501.07;109662;1240;72326;-71
2023/04/21 06:20:03;;;;;;;18.50;5.20;;;;;;;9.80;100.00;100498.23;109661;1242;71092;-72
2023/04/21 06:22:32;;;;;;;18.50;4.40;;;;;;;9.93;100.00;100500.39;109514;1241;64229;-70
2023/04/21 06:25:01;;;;;;;8.90;4.60;;;;;;;10.00;100.00;100498.35;109745;1241;62990;-71
2023/04/21 06:27:29;;;;;;;16.20;4.60;;;;;;;10.00;99.69;100496.73;109794;1240;60937;-72
2023/04/21 06:29:58;;;;;;;12.70;4.80;;;;;;;10.03;99.69;100503.52;109735;1242;63554;-71
2023/04/21 06:32:27;;;;;;;15.40;4.70;;;;;;;10.16;100.00;100502.16;109927;1241;60824;-71
2023/04/21 06:34:56;;;;;;;14.60;4.90;;;;;;;10.15;99.98;100506.79;109665;1241;69757;-72
2023/04/21 06:37:24;;;;;;;14.70;4.20;;;;;;;10.23;99.38;100508.69;109829;1241;74521;-71
2023/04/21 06:39:53;;;;;;;13.90;4.30;;;;;;;10.32;99.44;100503.96;109896;1241;57615;-72
2023/04/21 06:42:22;;;;;;;14.50;4.30;;;;;;;10.46;100.00;100508.52;109900;1240;57197;-72
2023/04/21 06:44:51;;;;;;;10.00;3.80;;;;;;;10.49;99.39;100506.87;109791;1241;62198;-73
2023/04/21 06:47:22;;;;;;;13.80;4.10;;;;;;;10.60;99.49;100506.81;109895;1242;60840;-71
2023/04/21 06:49:51;;;;;;;13.30;4.40;;;;;;;10.74;100.00;100506.59;110022;1239;59055;-73
2023/04/21 06:52:20;;;;;;;12.50;5.00;;;;;;;10.79;99.67;100506.88;109894;1240;73049;-72
2023/04/21 06:54:48;;;;;;;16.10;4.50;;;;;;;10.68;99.18;100503.02;109890;1240;61849;-72
2023/04/21 06:57:17;;;;;;;11.70;4.30;;;;;;;10.70;100.00;100501.17;109851;1242;57676;-72
2023/04/21 06:59:46;;;;;;;15.50;4.40;;;;;;;11.00;100.00;100503.02;109937;1239;71840;-73
2023/04/21 07:02:15;;;;;;;8.90;4.30;;;;;;;11.04;100.00;100503.05;109956;1239;62106;-73
2023/04/21 07:04:44;;;;;;;10.90;4.20;;;;;;;11.00;99.97;100502.80;109954;1239;60056;-77
2023/04/21 07:07:13;;;;;;;11.30;4.80;;;;;;;11.12;99.83;100501.04;109920;1239;62456;-74
2023/04/21 07:09:46;;;;;;;12.10;4.10;;;;;;;11.09;99.44;100499.02;109965;1239;57093;-71
2023/04/21 07:12:14;;;;;;;14.90;4.40;;;;;;;11.16;99.36;100504.77;109931;1241;60436;-70
2023/04/21 07:14:43;;;;;;;16.30;4.70;;;;;;;11.26;100.00;100506.91;109843;1242;62972;-70
2023/04/21 07:17:12;;;;;;;18.30;3.80;;;;;;;11.29;96.27;100508.90;109966;1239;61684;-72
2023/04/21 07:19:41;;;;;;;10.50;3.70;;;;;;;11.39;96.06;100511.30;109945;1240;70458;-70
2023/04/21 07:22:09;;;;;;;12.30;3.70;;;;;;;11.50;92.08;100509.85;110008;1239;74165;-73
2023/04/21 07:24:38;;;;;;;10.20;3.30;;;;;;;11.45;90.81;100508.89;109978;1239;57702;-75
2023/04/21 07:27:07;;;;;;;11.90;3.10;;;;;;;11.38;88.44;100505.60;110011;1241;57243;-72
2023/04/21 07:29:36;;;;;;;11.20;3.10;;;;;;;11.48;89.18;100505.56;109985;1239;73449;-73
2023/04/21 07:32:05;;;;;;;10.90;3.10;;;;;;;11.47;89.50;100496.52;109849;1241;71834;-74
2023/04/21 07:34:33;;;;;;;9.60;3.00;;;;;;;11.56;89.42;100500.88;109934;1239;69857;-73
2023/04/21 07:37:02;;;;;;;13.80;3.30;;;;;;;11.56;88.65;100494.41;109921;1241;63699;-72
2023/04/21 07:39:31;;;;;;;12.40;3.10;;;;;;;11.51;88.79;100493.98;109729;1241;63745;-72
2023/04/21 07:41:59;;;;;;;14.20;2.80;;;;;;;11.68;88.41;100499.89;109935;1239;60780;-72
2023/04/21 07:44:28;;;;;;;12.00;2.80;;;;;;;11.62;88.32;100499.48;109846;1242;63736;-72
2023/04/21 07:46:57;;;;;;;10.50;3.00;;;;;;;11.57;88.10;100498.14;109815;1241;60819;-72
2023/04/21 07:49:26;;;;;;;17.00;3.80;;;;;;;11.66;88.75;100498.48;109900;1240;69631;-72
2023/04/21 07:51:55;;;;;;;12.90;3.40;;;;;;;11.94;89.39;100503.47;109832;1242;63626;-72
2023/04/21 07:54:24;;;;;;;12.80;3.40;;;;;;;11.99;87.64;100502.66;109959;1239;57643;-72
2023/04/21 07:56:53;;;;;;;16.40;5.60;;;;;;;12.06;87.62;100495.98;109953;1240;61304;-71
2023/04/21 07:59:22;;;;;;;10.10;3.70;;;;;;;12.12;86.78;100502.11;109647;1241;74039;-72
2023/04/21 08:01:50;;;;;;;11.50;3.20;;;;;;;12.23;87.03;100512.42;109962;1239;73003;-72
2023/04/21 08:04:19;;;;;;;10.50;3.10;;;;;;;12.38;85.24;100505.89;109983;1241;60378;-71
2023/04/21 08:06:48;;;;;;;10.10;3.10;;;;;;;12.42;81.23;100504.88;109950;1239;72968;-72
2023/04/21 08:09:17;;;;;;;11.30;3.10;;;;;;;12.49;82.55;100502.21;109903;1241;61168;-71
2023/04/21 08:11:47;;;;;;;9.80;2.40;;;;;;;12.62;79.85;100504.77;109844;1239;61677;-70
2023/04/21 08:14:15;;;;;;;13.60;3.80;;;;;;;12.78;79.18;100499.41;109990;1241;73919;-74
2023/04/21 08:16:45;;;;;;;8.40;3.30;;;;;;;12.70;78.82;100493.58;109994;1241;71983;-74
2023/04/21 08:19:14;;;;;;;10.50;3.00;;;;;;;12.57;78.63;100500.70;110009;1239;59970;-73
2023/04/21 08:21:43;;;;;;;13.60;3.20;;;;;;;12.73;79.00;100493.70;109677;1239;353338;-70
2023/04/21 08:24:11;;;;;;;16.90;3.10;;;;;;;12.68;78.81;100491.48;109942;1239;61112;-71
2023/04/21 08:26:40;;;;;;;9.00;2.90;;;;;;;12.72;79.89;100487.34;109815;1240;57724;-72
2023/04/21 08:29:09;;;;;;;6.80;2.70;;;;;;;12.99;78.47;100485.21;109815;1240;62946;-75
2023/04/21 08:31:38;;;;;;;18.60;3.30;;;;;;;12.93;77.05;100489.02;109920;1239;70802;-81
2023/04/21 08:34:07;;;;;;;12.60;2.90;;;;;;;12.94;75.81;100493.81;109900;1239;69971;-74
2023/04/21 08:36:36;;;;;;;11.80;2.60;;;;;;;13.06;73.97;100487.55;109882;1239;73680;-74
2023/04/21 08:39:05;;;;;;;11.00;3.10;;;;;;;13.10;73.78;100489.73;109891;1239;61393;-73
2023/04/21 08:41:33;;;;;;;10.70;2.80;;;;;;;13.09;70.69;100488.35;109923;1239;61150;-79
2023/04/21 08:44:02;;;;;;;11.30;2.90;;;;;;;13.11;61.78;100489.04;109822;1240;62871;-73
2023/04/21 08:46:32;;;;;;;14.90;3.30;;;;;;;13.13;61.52;100491.14;109963;1239;60869;-72
2023/04/21 08:49:01;;;;;;;12.80;2.90;;;;;;;13.03;61.41;100490.79;109930;1239;70444;-73
2023/04/21 08:51:30;;;;;;;10.90;3.10;;;;;;;13.17;63.06;100484.39;109731;1241;64279;-74
2023/04/21 08:53:59;;;;;;;12.80;3.30;;;;;;;13.35;63.31;100488.55;109807;1240;57170;-72
2023/04/21 08:56:28;;;;;;;12.20;3.70;;;;;;;13.46;61.12;100486.77;109982;1239;57626;-72
2023/04/21 08:58:57;;;;;;;11.90;3.00;;;;;;;13.47;61.03;100488.55;109983;1239;71923;-72
2023/04/21 09:01:26;;;;;;;13.60;3.40;;;;;;;13.60;59.67;100480.08;109911;1241;72781;-72
2023/04/21 09:04:16;;;;;;;12.10;2.70;;;;;;;13.82;59.79;100480.94;109946;1239;70438;-72
2023/04/21 09:06:45;;;;;;;8.90;2.90;;;;;;;14.03;59.49;100482.73;109776;1241;63252;-72
2023/04/21 09:09:14;;;;;;;13.60;3.10;;;;;;;14.15;58.15;100484.05;109917;1241;57644;-73
2023/04/21 09:11:54;;;;;;;14.80;3.10;;;;;;;14.19;58.43;100474.20;109747;1239;61176;-72
2023/04/21 09:14:33;;;;;;;16.50;3.80;;;;;;;14.47;58.54;100475.74;109913;1239;74006;-73
2023/04/21 09:17:03;;;;;;;9.60;3.10;;;;;;;14.50;57.70;100473.65;109818;1240;71638;-78
2023/04/21 09:19:33;;;;;;;14.60;3.50;;;;;;;14.39;57.65;100477.14;109539;1245;60596;-72
2023/04/21 09:22:02;;;;;;;17.40;3.30;;;;;;;14.23;57.50;100471.13;109512;1241;63304;-72
2023/04/21 09:24:32;;;;;;;15.20;3.70;;;;;;;14.06;58.24;100468.94;109522;1242;57242;-71
2023/04/21 09:27:03;;;;;;;13.20;3.60;;;;;;;14.40;58.50;100466.00;109483;1240;60570;-72
2023/04/21 09:29:32;;;;;;;14.30;3.30;;;;;;;14.65;59.30;100465.79;109626;1242;63347;-72
2023/04/21 09:32:01;;;;;;;16.20;3.10;;;;;;;14.53;58.55;100460.98;109586;1242;72155;-71
2023/04/21 09:34:29;;;;;;;13.60;3.80;;;;;;;14.52;59.45;100454.41;109570;1242;70126;-72
2023/04/21 09:37:03;;;;;;;9.60;2.70;;;;;;;14.33;57.97;100451.43;109561;1240;64589;-74
2023/04/21 09:39:32;;;;;;;16.60;4.10;;;;;;;14.14;57.46;100450.49;109420;1243;57958;-73
2023/04/21 09:42:28;;;;;;;10.80;3.30;;;;;;;14.12;58.12;100444.35;109578;1239;57629;-74
2023/04/21 09:44:56;;;;;;;15.00;3.30;;;;;;;14.19;57.01;100439.97;109457;1241;73527;-75
2023/04/21 09:47:54;;;;;;;11.10;3.30;;;;;;;14.29;56.46;100438.15;109641;1240;62096;-75
2023/04/21 09:50:25;;;;;;;11.60;2.80;;;;;;;14.46;56.43;100438.81;109650;1239;59284;-73
2023/04/21 09:53:20;;;;;;;14.10;3.50;;;;;;;14.54;56.65;100441.73;109445;1240;63317;-72
2023/04/21 09:55:52;;;;;;;18.00;3.30;;;;;;;14.63;57.39;100433.73;109549;1241;60374;-72
2023/04/21 09:58:26;;;;;;;16.10;3.00;;;;;;;14.47;56.83;100436.81;109766;1240;61758;-72
2023/04/21 10:00:56;;;;;;;12.90;3.00;;;;;;;14.51;56.41;100429.26;109704;1241;74027;-74
2023/04/21 10:03:27;;;;;;;13.20;3.60;;;;;;;14.58;56.35;100427.52;109802;1240;61484;-72
2023/04/21 10:05:56;;;;;;;12.80;4.10;;;;;;;14.40;56.67;100429.38;109802;1241;60564;-76
2023/04/21 10:08:26;;;;;;;10.40;2.90;;;;;;;14.32;57.41;100433.80;109595;1240;63331;-74
2023/04/21 10:10:55;;;;;;;14.30;4.10;;;;;;;14.35;57.60;100435.98;109663;1242;60596;-80
2023/04/21 10:13:24;;;;;;;12.20;3.90;;;;;;;14.39;56.68;100432.80;109614;1240;59334;-73
2023/04/21 10:16:08;;;;;;;9.00;2.90;;;;;;;14.57;57.15;100432.58;109426;1241;63439;-73
2023/04/21 10:18:45;;;;;;;16.30;3.40;;;;;;;14.93;55.75;100436.70;109563;1241;71406;-74
2023/04/21 10:21:20;;;;;;;13.70;3.00;;;;;;;14.82;56.45;100437.41;109456;1240;70919;-74
2023/04/21 10:23:52;;;;;;;15.90;3.10;;;;;;;14.79;56.23;100438.27;109594;1240;62919;-78
2023/04/21 10:26:31;;;;;;;10.80;3.20;;;;;;;14.69;57.51;100433.04;109591;1244;57682;-78
2023/04/21 10:29:04;;;;;;;11.90;3.40;;;;;;;14.82;56.46;100434.61;109599;1241;57263;-77
2023/04/21 10:31:33;;;;;;;9.00;3.30;;;;;;;14.55;56.35;100433.47;109705;1240;73517;-70
2023/04/21 10:34:05;;;;;;;11.20;3.40;;;;;;;14.18;56.29;100428.46;109793;1239;61261;-74
2023/04/21 10:36:41;;;;;;;12.80;3.40;;;;;;;13.87;57.54;100430.05;109807;1242;69681;-73
2023/04/21 10:39:15;;;;;;;13.30;3.30;;;;;;;13.95;58.48;100430.15;109665;1240;74325;-71
2023/04/21 10:41:45;;;;;;;15.20;3.20;;;;;;;13.97;59.06;100431.58;109640;1241;60829;-71
2023/04/21 10:44:15;;;;;;;10.80;3.20;;;;;;;13.78;59.32;100436.31;109688;1239;60829;-72
2023/04/21 10:46:52;;;;;;;12.70;3.50;;;;;;;13.71;60.37;100430.07;109700;1242;72826;-72
2023/04/21 10:49:28;;;;;;;20.10;3.40;;;;;;;13.60;60.63;100432.29;109791;1239;61651;-72
2023/04/21 10:55:11;;;;;;;12.40;3.40;;;;;;;13.43;60.97;100442.55;109821;1239;62879;-77
2023/04/21 10:57:43;;;;;;;;;;;;;;;13.26;60.67;100445.33;109882;1241;57563;-73
2023/04/21 11:00:17;;;;;;;10.30;2.90;;;;;;;13.28;60.96;100439.54;109808;1240;57242;-78
2023/04/21 11:03:00;;;;;;;16.10;3.40;;;;;;;13.33;61.78;100440.52;109836;1240;73572;-74
2023/04/21 11:05:39;;;;;;;13.40;4.30;;;;;;;13.29;61.89;100442.25;109821;1239;62206;-74
2023/04/21 11:08:12;;;;;;;11.00;3.50;;;;;;;13.14;61.53;100445.05;109904;1238;69700;-73
2023/04/21 11:10:47;;;;;;;11.00;3.90;;;;;;;13.19;62.78;100440.96;109916;1239;63559;-74
2023/04/21 11:13:16;;;;;;;13.50;3.40;;;;;;;13.19;63.03;100442.21;109616;1242;58175;-75
2023/04/21 11:16:04;;;;;;;6.30;2.70;;;;;;;13.38;63.73;100442.63;109748;1241;57402;-74
2023/04/21 11:18:43;;;;;;;19.50;4.40;;;;;;;13.45;62.93;100440.26;109656;1239;62859;-73
2023/04/21 11:21:18;;;;;;;14.20;4.00;;;;;;;13.74;64.54;100441.14;109479;1241;72205;-73
2023/04/21 11:23:54;;;;;;;12.50;3.60;;;;;;;13.95;61.93;100432.66;109634;1239;60883;-83
2023/04/21 11:26:50;;;;;;;13.50;3.60;;;;;;;14.50;64.10;100436.55;109739;1239;74003;-82